Hauptseite
METAR-TAF:

METAR-TAF

Flughäfen :

RAF Shawbury

Shawbury, England

Breite: 52-48N, Länge: 002-40W, Höhe: 76 m

Beobachtung

Neuester Wetterbericht von vor 52 Minuten, um 17:50 UTC
Wind 3 kt aus Nord
Temperatur 8°C
Luftfeuchtigkeit 81%
Luftdruck 1027 hPa
Sichtweite 10 km oder mehr

METAR: EGOS 181750Z AUTO 36003KT 9999 SCT035/// 08/05 Q1027

Zeit: 19:42 (18:42 UTC)

Prognose

Neuester Wetterbericht von vor 4 Stunden und 56 Minuten, um 13:46 UTC
Gültige Prognose vom 18 um 15 UTC bis 18 um 18 UTC
Wind 5 kt aus Ost
Sichtweite 10 km oder mehr
Leicht bewölkt in der Höhe von 3000 ft

TAF: EGOS 181346Z 1815/1818 08005KT 9999 FEW030

Wetterbeobachtungen und Prognosen von mehr als 4000 Flughäfen (METAR und TAF Bericht).

Die verfügbaren Stationen werden durch gelbe und rote Markierungen auf der Karte dargestellt.

Führen Sie die Maus auf sie, um den Namen der Station zu sehen.

Darauf klicken, um die Beobachtung von Wetterbeobachtungen und Prognosen zu sehen.

Um die Karte zu ändern : klicken Sie auf den grünen Tasten mit einem schwarzen Kreuz Zum Vergrößern, auf den grünen Button mit einem Gedankenstrich zu verkleinern, oder auf die grünen Pfeile für benachbarte Karten.


METAR-TAF: